Time;durP1;ratioP1;P1;durP2;ratioP2;P2;SDS_P1;SDS_P2;PMS_P1;PMS_P2;Temp;Humidity;BMP_temperature;BMP_pressure;BME280_temperature;BME280_humidity;BME280_pressure;Samples;Min_cycle;Max_cycle;Signal;HPM_P1;HPM_P2
2021/05/02 00:01:32;;;;;;;12.25;6.17;;;;;;;16.70;100.00;98366.89;1717353;82;20927;-65
2021/05/02 00:04:07;;;;;;;9.98;5.28;;;;;;;16.55;100.00;98360.83;1744113;81;22254;-66
2021/05/02 00:06:37;;;;;;;8.80;5.15;;;;;;;16.46;100.00;98356.77;1741048;81;21059;-66
2021/05/02 00:09:09;;;;;;;5.53;4.75;;;;;;;16.37;100.00;98355.36;1769394;79;21021;-66
2021/05/02 00:11:41;;;;;;;13.95;5.58;;;;;;;16.28;100.00;98349.55;1775570;79;21454;-66
2021/05/02 00:14:13;;;;;;;8.35;5.65;;;;;;;16.24;100.00;98357.27;1803620;79;21005;-66
2021/05/02 00:16:44;;;;;;;11.35;5.92;;;;;;;16.12;100.00;98362.63;1789751;79;22094;-66
2021/05/02 00:19:14;;;;;;;9.55;5.90;;;;;;;16.07;100.00;98363.25;1792152;78;20942;-67
2021/05/02 00:21:44;;;;;;;7.17;5.50;;;;;;;16.09;100.00;98368.55;1781048;79;20946;-66
2021/05/02 00:24:17;;;;;;;11.85;5.42;;;;;;;16.09;100.00;98361.43;1783197;79;20935;-66
2021/05/02 00:26:49;;;;;;;9.93;5.75;;;;;;;16.10;100.00;98356.97;1788536;78;20923;-67
2021/05/02 00:29:20;;;;;;;11.38;6.33;;;;;;;16.09;100.00;98356.11;1790327;79;21360;-67
2021/05/02 00:31:52;;;;;;;10.40;5.55;;;;;;;16.07;100.00;98355.27;1800619;79;21073;-66
2021/05/02 00:34:27;;;;;;;8.10;5.35;;;;;;;16.06;100.00;98362.38;1806787;78;21074;-66
2021/05/02 00:36:57;;;;;;;9.35;6.00;;;;;;;16.06;100.00;98353.54;1806420;79;21093;-66
2021/05/02 00:39:36;;;;;;;9.15;5.67;;;;;;;16.07;100.00;98355.27;1802255;78;20938;-65
2021/05/02 00:42:26;;;;;;;11.20;6.62;;;;;;;16.09;100.00;98347.26;1722881;82;21579;-65
2021/05/02 00:45:06;;;;;;;15.03;6.03;;;;;;;16.09;100.00;98337.95;1780599;79;20958;-66
2021/05/02 00:47:45;;;;;;;10.68;6.45;;;;;;;16.12;100.00;98338.69;1788607;79;21568;-66
2021/05/02 00:50:21;;;;;;;8.73;5.80;;;;;;;16.12;100.00;98332.03;1781090;79;20944;-67
2021/05/02 00:53:35;;;;;;;21.07;6.90;;;;;;;16.16;100.00;98323.45;1771692;80;21150;-68
2021/05/02 00:56:26;;;;;;;9.05;6.28;;;;;;;16.16;100.00;98320.80;1660951;86;21391;-67
2021/05/02 00:59:10;;;;;;;9.37;6.13;;;;;;;16.16;100.00;98324.33;1663590;85;21034;-65
2021/05/02 01:01:42;;;;;;;9.30;6.03;;;;;;;16.20;100.00;98325.93;1661599;85;21675;-63
2021/05/02 01:04:12;;;;;;;;;;;;;;;16.25;100.00;98333.72;1665361;85;21041;-68
2021/05/02 01:06:43;;;;;;;12.73;6.80;;;;;;;16.26;100.00;98325.67;1663065;86;20121;-68
2021/05/02 01:09:14;;;;;;;9.08;6.45;;;;;;;16.26;100.00;98324.34;1663008;86;21390;-69
2021/05/02 01:11:47;;;;;;;10.48;6.30;;;;;;;16.24;100.00;98324.00;1665258;85;21061;-70
2021/05/02 01:14:20;;;;;;;10.58;6.72;;;;;;;16.23;100.00;98328.92;1665168;85;21108;-69
2021/05/02 01:16:50;;;;;;;14.13;6.53;;;;;;;16.22;100.00;98319.21;1662666;86;20966;-69
2021/05/02 01:19:21;;;;;;;9.50;7.15;;;;;;;16.21;100.00;98320.14;1662617;86;20950;-69
2021/05/02 01:21:51;;;;;;;9.58;7.05;;;;;;;16.16;100.00;98321.66;1663386;85;21392;-69
2021/05/02 01:24:21;;;;;;;10.45;6.45;;;;;;;16.11;100.00;98327.64;1662277;85;20986;-70
2021/05/02 01:26:53;;;;;;;12.55;7.05;;;;;;;16.05;100.00;98330.06;1665720;85;21541;-71
2021/05/02 01:29:24;;;;;;;10.72;6.47;;;;;;;16.00;100.00;98325.86;1667471;86;21520;-68
2021/05/02 01:31:54;;;;;;;8.75;6.62;;;;;;;15.97;100.00;98316.67;1667355;85;21080;-71
2021/05/02 01:34:24;;;;;;;10.20;6.53;;;;;;;15.95;100.00;98314.54;1668031;86;22388;-70
2021/05/02 01:36:54;;;;;;;10.60;6.40;;;;;;;15.93;100.00;98315.94;1662955;85;21081;-70
2021/05/02 01:39:27;;;;;;;9.70;5.78;;;;;;;15.91;100.00;98304.49;1669890;85;21040;-70
2021/05/02 01:41:57;;;;;;;11.05;6.35;;;;;;;15.91;100.00;98304.49;1669001;85;21033;-70
2021/05/02 01:44:26;;;;;;;10.58;6.70;;;;;;;15.86;100.00;98303.81;1662957;85;21030;-71
2021/05/02 01:46:58;;;;;;;9.93;6.95;;;;;;;15.82;100.00;98302.67;1662309;86;21163;-70
2021/05/02 01:49:28;;;;;;;9.18;6.10;;;;;;;15.74;100.00;98298.53;1636666;86;21169;-67
2021/05/02 01:51:59;;;;;;;7.85;5.55;;;;;;;15.69;100.00;98302.31;1667854;85;21017;-66
2021/05/02 01:54:34;;;;;;;7.53;6.58;;;;;;;15.67;100.00;98296.19;1630723;87;21173;-66
2021/05/02 01:57:08;;;;;;;9.55;6.50;;;;;;;15.66;100.00;98297.11;1639808;85;20962;-65
2021/05/02 01:59:39;;;;;;;10.23;7.10;;;;;;;15.66;100.00;98295.78;1640959;85;21370;-66
2021/05/02 02:02:10;;;;;;;12.18;7.20;;;;;;;15.63;100.00;98290.12;1612285;85;21028;-66
2021/05/02 02:04:45;;;;;;;9.37;6.40;;;;;;;15.57;100.00;98293.42;1639189;85;20949;-66
2021/05/02 02:07:15;;;;;;;10.65;7.28;;;;;;;15.53;100.00;98289.16;1640884;85;21286;-66
2021/05/02 02:09:46;;;;;;;12.95;7.97;;;;;;;15.50;100.00;98287.49;1633074;85;21182;-66
2021/05/02 02:12:23;;;;;;;12.63;7.22;;;;;;;15.49;100.00;98287.55;1641163;85;21381;-66
2021/05/02 02:14:54;;;;;;;10.80;7.22;;;;;;;15.48;100.00;98286.69;1639179;85;21100;-64
2021/05/02 02:17:24;;;;;;;12.20;6.87;;;;;;;15.48;100.00;98289.34;1640765;85;21545;-63
2021/05/02 02:19:56;;;;;;;11.25;7.37;;;;;;;15.49;100.00;98291.54;1618549;85;20963;-66
2021/05/02 02:22:26;;;;;;;12.63;7.90;;;;;;;15.47;100.00;98288.08;1620044;86;21099;-66
2021/05/02 02:25:00;;;;;;;11.83;7.75;;;;;;;15.42;100.00;98289.13;1613624;87;21385;-66
2021/05/02 02:27:31;;;;;;;9.93;7.40;;;;;;;15.42;100.00;98284.27;1613532;87;21133;-67
2021/05/02 02:30:04;;;;;;;14.85;7.60;;;;;;;15.44;100.00;98289.06;1615286;85;20982;-67
2021/05/02 02:32:36;;;;;;;12.40;8.00;;;;;;;15.45;100.00;98284.16;1614808;87;20957;-66
2021/05/02 02:35:08;;;;;;;10.28;8.45;;;;;;;15.45;100.00;98285.48;1617196;85;21206;-66
2021/05/02 02:37:39;;;;;;;;;;;;;;;15.47;100.00;98284.95;1635662;86;21278;-67
2021/05/02 02:40:10;;;;;;;11.75;7.97;;;;;;;15.46;100.00;98280.56;1638897;85;20140;-67
2021/05/02 02:42:44;;;;;;;13.80;8.70;;;;;;;15.44;100.00;98277.10;1641063;85;20988;-67
2021/05/02 02:45:16;;;;;;;11.28;8.40;;;;;;;15.42;100.00;98270.52;1613622;85;21512;-67
2021/05/02 02:47:54;;;;;;;13.43;9.30;;;;;;;15.44;100.00;98271.79;1640880;85;21158;-67
2021/05/02 02:50:24;;;;;;;14.30;9.78;;;;;;;15.47;100.00;98270.34;1639110;85;22265;-67
2021/05/02 02:52:59;;;;;;;19.45;9.55;;;;;;;15.54;100.00;98266.97;1640595;85;21152;-67
2021/05/02 02:55:34;;;;;;;19.40;9.70;;;;;;;15.57;100.00;98266.38;1653085;84;20983;-67
2021/05/02 02:58:11;;;;;;;16.52;9.70;;;;;;;15.60;100.00;98257.45;1667427;86;21010;-67
2021/05/02 03:00:41;;;;;;;13.55;9.20;;;;;;;15.61;100.00;98258.75;1667539;86;21089;-67
2021/05/02 03:03:20;;;;;;;16.42;9.70;;;;;;;15.63;100.00;98250.72;1667657;86;21220;-67
2021/05/02 03:05:53;;;;;;;16.97;8.85;;;;;;;15.68;100.00;98252.72;1635538;87;21151;-67
2021/05/02 03:08:24;;;;;;;22.70;8.40;;;;;;;15.67;100.00;98243.88;1660803;85;21580;-67
2021/05/02 03:10:56;;;;;;;18.45;9.00;;;;;;;15.69;100.00;98245.14;1664371;86;21270;-66
2021/05/02 03:13:27;;;;;;;15.48;9.83;;;;;;;15.69;100.00;98250.46;1632489;87;21598;-68
2021/05/02 03:15:59;;;;;;;16.20;9.53;;;;;;;15.67;100.00;98251.86;1663565;86;21225;-66
2021/05/02 03:18:34;;;;;;;16.12;9.20;;;;;;;15.67;100.00;98253.65;1665744;84;20970;-67
2021/05/02 03:21:08;;;;;;;17.73;8.93;;;;;;;15.65;100.00;98251.05;1664472;84;21097;-67
2021/05/02 03:23:40;;;;;;;15.00;8.93;;;;;;;15.65;100.00;98244.88;1607077;86;21145;-66
2021/05/02 03:26:12;;;;;;;16.40;9.97;;;;;;;15.67;100.00;98243.88;1664238;86;21564;-66
2021/05/02 03:28:53;;;;;;;18.45;9.80;;;;;;;15.65;100.00;98243.08;1660398;86;21223;-66
2021/05/02 03:31:29;;;;;;;13.30;8.13;;;;;;;15.64;100.00;98240.48;1661675;86;20998;-67
2021/05/02 03:34:09;;;;;;;17.17;8.25;;;;;;;15.66;100.00;98238.16;1661808;86;21640;-66
2021/05/02 03:36:49;;;;;;;13.40;8.80;;;;;;;15.67;100.00;98231.92;1665474;86;21144;-68
2021/05/02 03:39:19;;;;;;;14.38;9.20;;;;;;;15.67;100.00;98232.37;1637539;87;21132;-67
2021/05/02 03:41:49;;;;;;;15.58;8.58;;;;;;;15.63;100.00;98226.33;1646618;86;22191;-68
2021/05/02 03:44:20;;;;;;;13.15;9.15;;;;;;;15.60;100.00;98225.55;1665960;86;21041;-67
2021/05/02 03:46:50;;;;;;;17.45;8.80;;;;;;;15.60;100.00;98226.42;1665715;86;21181;-68
2021/05/02 03:49:20;;;;;;;15.50;9.30;;;;;;;15.59;100.00;98229.14;1666346;86;21611;-68
2021/05/02 03:51:50;;;;;;;15.53;10.08;;;;;;;15.55;100.00;98228.83;1634129;87;21172;-66
2021/05/02 03:54:20;;;;;;;15.63;9.05;;;;;;;15.51;100.00;98240.05;1666084;86;21212;-66
2021/05/02 03:56:51;;;;;;;17.30;9.75;;;;;;;15.48;100.00;98255.26;1667207;86;21568;-66
2021/05/02 03:59:25;;;;;;;16.70;9.45;;;;;;;15.46;100.00;98267.28;1667775;86;21088;-66
2021/05/02 04:02:01;;;;;;;14.13;9.45;;;;;;;15.40;100.00;98275.50;1632631;87;21099;-67
2021/05/02 04:04:36;;;;;;;19.30;11.20;;;;;;;15.37;100.00;98283.59;1665220;85;21172;-67
2021/05/02 04:07:10;;;;;;;18.17;10.98;;;;;;;15.36;100.00;98296.01;1634452;86;21351;-67
2021/05/02 04:09:45;;;;;;;19.82;10.88;;;;;;;15.38;100.00;98339.80;1666060;86;21144;-65
2021/05/02 04:12:16;;;;;;;17.02;10.23;;;;;;;15.36;100.00;98397.45;1665702;85;21224;-67
2021/05/02 04:14:47;;;;;;;18.45;9.93;;;;;;;15.35;100.00;98419.17;1665785;86;21180;-66
2021/05/02 04:17:17;;;;;;;19.02;10.10;;;;;;;15.35;100.00;98388.61;1663712;84;21215;-66
2021/05/02 04:19:49;;;;;;;17.25;10.25;;;;;;;15.36;100.00;98358.45;1666118;85;21205;-67
2021/05/02 04:22:18;;;;;;;19.52;10.10;;;;;;;15.34;100.00;98385.55;1664332;84;21162;-67
2021/05/02 04:24:48;;;;;;;14.38;8.45;;;;;;;15.34;100.00;98420.55;1630698;87;21218;-67
2021/05/02 04:27:18;;;;;;;12.78;8.05;;;;;;;15.36;100.00;98392.13;1660380;86;21208;-67
2021/05/02 04:29:48;;;;;;;14.35;8.05;;;;;;;15.37;100.00;98385.44;1669627;84;21164;-66
2021/05/02 04:32:18;;;;;;;14.75;8.68;;;;;;;15.38;100.00;98425.70;1671462;85;21352;-66
2021/05/02 04:34:48;;;;;;;16.50;9.38;;;;;;;15.40;100.00;98432.29;1665687;86;21572;-67
2021/05/02 04:37:18;;;;;;;19.30;8.80;;;;;;;15.41;100.00;98406.11;1665676;84;21139;-67
2021/05/02 04:39:48;;;;;;;14.63;7.90;;;;;;;15.42;100.00;98415.36;1666881;86;21037;-67
2021/05/02 04:42:18;;;;;;;16.37;7.50;;;;;;;15.40;100.00;98416.34;1632447;87;21035;-67
2021/05/02 04:44:48;;;;;;;19.20;8.20;;;;;;;15.37;100.00;98412.01;1662315;86;21215;-67
2021/05/02 04:47:19;;;;;;;18.60;8.90;;;;;;;15.37;100.00;98413.80;1637546;87;21613;-67
2021/05/02 04:49:49;;;;;;;16.05;9.33;;;;;;;15.35;100.00;98414.32;1612186;88;21194;-67
2021/05/02 04:52:18;;;;;;;11.57;7.40;;;;;;;15.34;100.00;98414.78;1665806;84;21034;-68
2021/05/02 04:54:48;;;;;;;14.20;7.45;;;;;;;15.32;100.00;98402.02;1665712;85;21124;-68
2021/05/02 04:57:18;;;;;;;16.30;7.92;;;;;;;15.35;100.00;98399.70;1663539;84;21362;-68
2021/05/02 04:59:48;;;;;;;14.73;8.18;;;;;;;15.36;100.00;98393.00;1658135;84;21571;-68
2021/05/02 05:02:18;;;;;;;12.45;7.95;;;;;;;15.37;100.00;98390.75;1631464;86;21190;-68
2021/05/02 05:04:48;;;;;;;14.33;7.90;;;;;;;15.38;100.00;98384.51;1640401;85;21034;-68
2021/05/02 05:07:19;;;;;;;12.13;8.20;;;;;;;15.40;100.00;98383.13;1640236;85;21590;-67
2021/05/02 05:09:49;;;;;;;10.90;6.85;;;;;;;15.41;100.00;98375.55;1658773;86;21452;-68
2021/05/02 05:12:18;;;;;;;14.10;7.45;;;;;;;15.44;100.00;98372.31;1659035;84;21560;-67
2021/05/02 05:14:49;;;;;;;12.60;7.47;;;;;;;15.49;100.00;98374.80;1659361;84;21137;-67
2021/05/02 05:17:19;;;;;;;13.53;8.08;;;;;;;15.54;100.00;98379.94;1659084;86;21014;-68
2021/05/02 05:19:49;;;;;;;12.85;7.33;;;;;;;15.57;100.00;98375.83;1659228;86;21164;-67
2021/05/02 05:22:18;;;;;;;13.55;7.70;;;;;;;15.62;100.00;98363.30;1660540;86;22135;-67
2021/05/02 05:24:49;;;;;;;10.78;8.30;;;;;;;15.63;100.00;98353.93;1664100;86;21595;-67
2021/05/02 05:27:18;;;;;;;15.10;8.70;;;;;;;15.65;100.00;98350.75;1631413;86;21001;-67
2021/05/02 05:29:48;;;;;;;16.35;9.33;;;;;;;15.69;100.00;98347.05;1603962;88;21006;-67
2021/05/02 05:32:20;;;;;;;15.45;8.40;;;;;;;15.71;100.00;98335.88;1603940;88;21619;-67
2021/05/02 05:34:49;;;;;;;9.68;8.00;;;;;;;15.77;100.00;98329.45;1603508;89;21232;-68
2021/05/02 05:37:20;;;;;;;13.45;8.08;;;;;;;15.83;100.00;98320.36;1603595;89;21119;-66
2021/05/02 05:39:50;;;;;;;18.65;9.85;;;;;;;15.85;100.00;98311.39;1611133;88;21158;-68
2021/05/02 05:42:20;;;;;;;14.07;9.53;;;;;;;15.87;100.00;98300.69;1631080;86;21512;-67
2021/05/02 05:44:51;;;;;;;14.63;9.00;;;;;;;15.87;100.00;98286.94;1637172;85;21095;-67
2021/05/02 05:47:21;;;;;;;15.83;9.58;;;;;;;15.90;100.00;98281.95;1659231;86;21214;-67
2021/05/02 05:49:51;;;;;;;12.58;9.48;;;;;;;15.92;100.00;98272.98;1659215;84;21085;-68
2021/05/02 05:52:21;;;;;;;17.37;8.90;;;;;;;15.94;100.00;98270.25;1659339;85;21509;-68
2021/05/02 05:54:51;;;;;;;10.25;8.35;;;;;;;15.96;100.00;98263.94;1659209;86;21104;-68
2021/05/02 05:57:21;;;;;;;13.20;9.08;;;;;;;15.92;100.00;98260.14;1634592;85;21346;-68
2021/05/02 05:59:52;;;;;;;15.43;8.65;;;;;;;15.91;100.00;98253.96;1642693;87;21357;-67
2021/05/02 06:02:22;;;;;;;14.58;8.55;;;;;;;15.92;100.00;98244.19;1660336;85;21532;-68
2021/05/02 06:04:52;;;;;;;18.07;9.95;;;;;;;15.88;100.00;98238.59;1653537;86;21533;-68
2021/05/02 06:07:22;;;;;;;17.02;10.03;;;;;;;15.81;100.00;98230.48;1658135;85;21116;-68
2021/05/02 06:09:52;;;;;;;17.82;10.30;;;;;;;15.77;100.00;98226.22;1693565;84;21064;-67
2021/05/02 06:12:21;;;;;;;18.82;10.30;;;;;;;15.72;100.00;98220.62;1697556;84;21375;-68
2021/05/02 06:14:52;;;;;;;13.25;9.23;;;;;;;15.74;100.00;98223.22;1677126;84;21117;-68
2021/05/02 06:17:22;;;;;;;18.48;10.28;;;;;;;15.76;100.00;98214.72;1674327;84;21080;-69
2021/05/02 06:19:51;;;;;;;16.55;10.32;;;;;;;15.78;100.00;98209.33;1699059;84;21068;-68
2021/05/02 06:22:21;;;;;;;13.85;9.10;;;;;;;15.76;100.00;98208.06;1698707;84;21506;-69
2021/05/02 06:24:50;;;;;;;14.53;8.98;;;;;;;15.78;100.00;98200.03;1697332;84;22173;-68
2021/05/02 06:27:21;;;;;;;16.65;8.70;;;;;;;15.83;100.00;98207.34;1696708;84;21111;-68
2021/05/02 06:29:51;;;;;;;18.67;9.50;;;;;;;15.92;100.00;98215.80;1699008;84;21079;-69
2021/05/02 06:32:22;;;;;;;17.02;9.05;;;;;;;16.01;100.00;98216.73;1680207;84;20970;-67
2021/05/02 06:34:52;;;;;;;16.10;8.77;;;;;;;16.10;100.00;98210.65;1674340;84;21088;-68
2021/05/02 06:37:23;;;;;;;10.53;7.20;;;;;;;16.23;100.00;98213.17;1676202;84;21220;-69
2021/05/02 06:39:52;;;;;;;11.15;7.20;;;;;;;16.36;100.00;98213.89;1674351;84;20977;-68
2021/05/02 06:42:23;;;;;;;13.55;9.25;;;;;;;16.49;100.00;98219.53;1676781;84;21092;-67
2021/05/02 06:44:53;;;;;;;15.35;10.38;;;;;;;16.59;100.00;98229.34;1675055;84;20958;-68
2021/05/02 06:47:23;;;;;;;15.70;9.95;;;;;;;16.56;100.00;98248.11;1675864;84;21088;-68
2021/05/02 06:49:52;;;;;;;15.75;9.98;;;;;;;16.49;100.00;98270.58;1675220;84;21281;-68
2021/05/02 06:52:22;;;;;;;16.67;10.82;;;;;;;16.43;100.00;98298.33;1675732;84;21096;-68
2021/05/02 06:54:53;;;;;;;17.48;11.03;;;;;;;16.37;100.00;98308.78;1674012;84;21116;-68
2021/05/02 06:57:23;;;;;;;20.70;12.03;;;;;;;16.31;100.00;98310.38;1665477;84;21099;-68
2021/05/02 06:59:52;;;;;;;19.25;11.60;;;;;;;16.21;100.00;98309.50;1657692;86;21117;-68
2021/05/02 07:02:22;;;;;;;21.27;12.60;;;;;;;16.07;100.00;98290.09;1630811;87;21212;-68
2021/05/02 07:04:52;;;;;;;23.38;12.88;;;;;;;15.98;100.00;98271.86;1603517;89;21121;-69
2021/05/02 07:07:22;;;;;;;19.52;12.60;;;;;;;15.93;100.00;98262.74;1622526;87;21081;-68
2021/05/02 07:09:52;;;;;;;24.98;13.85;;;;;;;15.87;100.00;98248.83;1629320;86;21104;-69
2021/05/02 07:12:23;;;;;;;17.40;12.95;;;;;;;15.82;100.00;98258.80;1615436;86;21105;-69
2021/05/02 07:14:53;;;;;;;22.52;13.43;;;;;;;15.82;100.00;98277.41;1602788;88;21235;-69
2021/05/02 07:17:25;;;;;;;23.62;14.05;;;;;;;15.75;100.00;98308.70;1615193;88;21010;-69
2021/05/02 07:19:55;;;;;;;25.37;14.00;;;;;;;15.64;100.00;98306.48;1610065;86;21089;-69
2021/05/02 07:22:26;;;;;;;23.05;13.62;;;;;;;15.54;100.00;98275.81;1630047;86;21091;-69
2021/05/02 07:24:56;;;;;;;22.48;13.08;;;;;;;15.50;100.00;98270.22;1627965;86;21685;-69
2021/05/02 07:27:25;;;;;;;20.25;12.40;;;;;;;15.48;100.00;98262.77;1621790;88;21345;-67
2021/05/02 07:29:56;;;;;;;25.70;14.28;;;;;;;15.48;100.00;98288.02;1629768;88;21098;-69
2021/05/02 07:32:25;;;;;;;21.93;15.53;;;;;;;15.48;100.00;98349.14;1625220;86;20998;-70
2021/05/02 07:34:56;;;;;;;25.45;13.48;;;;;;;15.48;100.00;98358.45;1639350;86;21517;-69
2021/05/02 07:37:27;;;;;;;24.47;12.95;;;;;;;15.44;100.00;98295.70;1657405;86;21098;-69
2021/05/02 07:39:56;;;;;;;19.87;12.98;;;;;;;15.47;100.00;98304.02;1642829;86;21399;-69
2021/05/02 07:42:26;;;;;;;23.60;11.88;;;;;;;15.44;100.00;98289.93;1608408;87;21063;-70
2021/05/02 07:44:56;;;;;;;18.10;11.55;;;;;;;15.42;100.00;98298.89;1659555;86;20978;-70
2021/05/02 07:47:27;;;;;;;17.85;12.10;;;;;;;15.42;100.00;98309.05;1652333;86;21195;-70
2021/05/02 07:49:57;;;;;;;17.77;13.08;;;;;;;15.37;100.00;98315.48;1658390;86;21164;-70
2021/05/02 07:52:26;;;;;;;23.02;13.25;;;;;;;15.29;100.00;98305.61;1657017;86;21442;-70
2021/05/02 07:54:56;;;;;;;18.35;12.95;;;;;;;15.21;100.00;98305.91;1662752;86;21125;-68
2021/05/02 07:57:26;;;;;;;15.20;11.65;;;;;;;15.13;100.00;98311.94;1644825;86;20967;-68
2021/05/02 07:59:57;;;;;;;17.57;11.73;;;;;;;15.05;100.00;98309.57;1657898;85;21100;-68
2021/05/02 08:02:27;;;;;;;20.10;12.55;;;;;;;14.97;100.00;98298.83;1684572;84;21500;-68
2021/05/02 08:04:56;;;;;;;17.87;12.15;;;;;;;14.91;100.00;98287.11;1705994;84;21372;-67
2021/05/02 08:07:26;;;;;;;20.40;13.22;;;;;;;14.86;100.00;98280.64;1670387;85;21136;-68
2021/05/02 08:09:56;;;;;;;19.50;13.10;;;;;;;14.86;100.00;98285.09;1669118;84;21034;-67
2021/05/02 08:12:28;;;;;;;19.98;13.43;;;;;;;14.83;100.00;98282.55;1668337;85;21053;-68
2021/05/02 08:15:00;;;;;;;21.50;13.55;;;;;;;14.82;100.00;98271.06;1667796;86;20990;-68
2021/05/02 08:17:29;;;;;;;18.90;13.58;;;;;;;14.82;100.00;98264.42;1667762;86;22146;-69
2021/05/02 08:19:59;;;;;;;23.10;14.23;;;;;;;14.80;100.00;98267.59;1679102;84;21100;-67
2021/05/02 08:22:29;;;;;;;22.30;14.20;;;;;;;14.81;100.00;98253.40;1695473;84;21093;-68
2021/05/02 08:24:58;;;;;;;21.40;14.65;;;;;;;14.83;100.00;98248.89;1695514;84;21096;-68
2021/05/02 08:27:28;;;;;;;19.35;14.73;;;;;;;14.89;100.00;98252.65;1695535;84;21515;-67
2021/05/02 08:29:58;;;;;;;18.98;13.72;;;;;;;14.89;100.00;98249.99;1695573;84;21381;-68
2021/05/02 08:32:28;;;;;;;25.62;14.47;;;;;;;14.89;100.00;98257.95;1694959;84;21611;-67
2021/05/02 08:34:57;;;;;;;26.20;14.45;;;;;;;14.88;100.00;98244.73;1667484;86;21030;-69
2021/05/02 08:37:27;;;;;;;23.15;15.38;;;;;;;14.91;100.00;98249.94;1667722;86;21077;-68
2021/05/02 08:39:56;;;;;;;23.38;15.32;;;;;;;14.93;100.00;98243.64;1671176;84;21211;-68
2021/05/02 08:42:26;;;;;;;19.57;13.78;;;;;;;15.01;100.00;98236.70;1687016;84;21374;-68
2021/05/02 08:44:56;;;;;;;20.30;14.18;;;;;;;15.10;100.00;98236.34;1667919;85;21204;-69
2021/05/02 08:47:34;;;;;;;21.23;14.33;;;;;;;15.17;100.00;98240.53;1640902;85;21056;-69
2021/05/02 08:50:00;;;;;;;24.75;15.65;;;;;;;15.25;100.00;98242.42;1668303;85;21013;-68
2021/05/02 08:52:31;;;;;;;26.40;15.53;;;;;;;15.33;100.00;98236.80;1668404;86;21104;-68
2021/05/02 08:55:01;;;;;;;25.80;15.53;;;;;;;15.44;100.00;98230.59;1668186;86;21381;-69
2021/05/02 08:57:30;;;;;;;22.90;15.45;;;;;;;15.66;100.00;98227.98;1677482;84;21160;-69
2021/05/02 09:00:00;;;;;;;30.90;16.15;;;;;;;15.90;100.00;98220.78;1674708;84;21034;-68
2021/05/02 09:02:31;;;;;;;24.80;15.40;;;;;;;16.13;100.00;98212.71;1680666;85;21070;-67
2021/05/02 09:05:04;;;;;;;26.87;15.38;;;;;;;16.33;100.00;98211.37;1653254;86;21097;-69
2021/05/02 09:07:43;;;;;;;28.10;15.50;;;;;;;16.55;100.00;98211.27;1658745;85;21384;-68
2021/05/02 09:10:16;;;;;;;22.87;14.85;;;;;;;16.78;100.00;98206.76;1657097;85;21477;-69
2021/05/02 09:13:00;;;;;;;25.37;15.88;;;;;;;17.05;100.00;98210.83;1667522;85;21010;-69
2021/05/02 09:15:32;;;;;;;23.00;15.08;;;;;;;17.22;100.00;98212.23;1671126;85;21579;-71
2021/05/02 09:18:15;;;;;;;20.77;14.78;;;;;;;17.42;100.00;98203.27;1668492;86;21609;-72
2021/05/02 09:20:55;;;;;;;23.05;14.75;;;;;;;17.52;100.00;98206.38;1666844;85;21074;-70
2021/05/02 09:23:22;;;;;;;25.75;14.25;;;;;;;17.56;100.00;98204.81;1660456;85;21104;-70
2021/05/02 09:25:54;;;;;;;24.82;14.73;;;;;;;17.61;100.00;98208.12;1642068;85;21483;-69
2021/05/02 09:28:51;;;;;;;28.35;15.70;;;;;;;17.61;100.00;98201.92;1636653;86;21151;-70
2021/05/02 09:31:25;;;;;;;32.50;15.75;;;;;;;17.61;100.00;98200.59;1663828;85;21113;-69
2021/05/02 09:34:21;;;;;;;23.25;14.30;;;;;;;17.70;100.00;98197.97;1675148;84;21479;-69
2021/05/02 09:37:07;;;;;;;23.22;13.40;;;;;;;18.04;100.00;98181.14;1666444;85;21106;-69
2021/05/02 09:40:00;;;;;;;20.52;13.53;;;;;;;18.29;100.00;98175.38;1666144;84;21618;-70
2021/05/02 09:42:39;;;;;;;23.50;15.10;;;;;;;18.29;100.00;98175.38;1665889;85;21200;-70
2021/05/02 09:45:11;;;;;;;21.90;14.33;;;;;;;18.42;100.00;98177.79;1665621;85;21152;-70
2021/05/02 09:47:42;;;;;;;21.17;13.83;;;;;;;18.49;100.00;98181.42;1665244;85;21215;-70
2021/05/02 09:50:23;;;;;;;23.18;14.28;;;;;;;18.54;100.00;98175.36;1667644;85;21211;-70
2021/05/02 09:53:09;;;;;;;21.33;13.80;;;;;;;18.48;100.00;98174.35;1668449;85;21205;-69
2021/05/02 09:55:39;;;;;;;27.02;15.18;;;;;;;18.44;100.00;98161.22;1666011;85;21623;-70
2021/05/02 09:58:13;;;;;;;23.42;15.08;;;;;;;18.41;100.00;98154.70;1666581;85;21203;-70
2021/05/02 10:00:44;;;;;;;21.75;13.85;;;;;;;18.36;100.00;98154.95;1654271;85;21383;-69
2021/05/02 10:03:18;;;;;;;21.15;12.85;;;;;;;18.33;100.00;98150.25;1656525;85;21029;-70
2021/05/02 10:05:58;;;;;;;26.62;14.33;;;;;;;18.27;100.00;98143.90;1656822;85;21252;-70
2021/05/02 10:08:37;;;;;;;25.02;14.58;;;;;;;18.16;100.00;98139.99;1654939;85;21152;-69
2021/05/02 10:11:10;;;;;;;24.25;13.70;;;;;;;18.11;100.00;98134.03;1652749;85;21156;-71
2021/05/02 10:13:40;;;;;;;22.90;13.32;;;;;;;18.10;100.00;98133.64;1640468;85;21408;-68
2021/05/02 10:16:14;;;;;;;21.93;12.98;;;;;;;18.06;100.00;98128.55;1651879;85;21088;-71
2021/05/02 10:18:44;;;;;;;18.05;12.35;;;;;;;18.01;100.00;98118.59;1652944;85;21128;-73
2021/05/02 10:21:14;;;;;;;18.87;12.18;;;;;;;18.01;100.00;98115.45;1667248;85;21091;-69
2021/05/02 10:23:45;;;;;;;24.63;13.90;;;;;;;18.02;100.00;98119.84;1615202;85;21104;-70
2021/05/02 10:26:15;;;;;;;20.92;12.05;;;;;;;18.02;100.00;98117.17;1649497;85;21265;-70
2021/05/02 10:29:04;;;;;;;21.25;12.20;;;;;;;18.03;100.00;98110.89;1706417;83;20984;-69
2021/05/02 10:31:41;;;;;;;;;;;;;;;18.01;100.00;98107.92;1711474;83;21647;-69
2021/05/02 10:34:27;;;;;;;19.10;11.55;;;;;;;18.03;100.00;98108.22;1701851;83;20782;-71
2021/05/02 10:37:27;;;;;;;19.27;11.40;;;;;;;18.07;100.00;98101.78;1704933;83;21101;-71
2021/05/02 10:40:13;;;;;;;18.17;10.90;;;;;;;18.10;100.00;98100.76;1705204;83;21211;-70
2021/05/02 10:42:52;;;;;;;18.20;11.53;;;;;;;18.16;100.00;98100.43;1710631;83;21002;-68
2021/05/02 10:45:35;;;;;;;17.37;11.55;;;;;;;18.19;100.00;98088.25;1703029;83;21132;-71
2021/05/02 10:48:24;;;;;;;18.45;11.97;;;;;;;18.25;100.00;98079.91;1707466;83;21262;-70
2021/05/02 10:50:58;;;;;;;18.27;11.00;;;;;;;18.31;100.00;98077.39;1706094;83;20961;-70
2021/05/02 10:53:30;;;;;;;19.50;10.77;;;;;;;18.36;100.00;98072.66;1713453;83;22203;-70
2021/05/02 10:56:07;;;;;;;22.13;10.93;;;;;;;18.42;100.00;98076.33;1680728;84;21469;-71
2021/05/02 10:58:39;;;;;;;18.40;11.50;;;;;;;18.46;100.00;98070.77;1656876;86;21109;-70
2021/05/02 11:01:26;;;;;;;18.60;10.98;;;;;;;18.47;100.00;98068.48;1661118;86;21025;-65
2021/05/02 11:03:56;;;;;;;18.57;9.70;;;;;;;18.48;100.00;98070.68;1660233;86;21056;-66
2021/05/02 11:06:43;;;;;;;18.30;9.00;;;;;;;18.46;100.00;98069.91;1660851;86;22297;-66
2021/05/02 11:09:16;;;;;;;15.25;9.18;;;;;;;18.40;100.00;98074.21;1659353;86;21531;-70
2021/05/02 11:11:49;;;;;;;19.45;9.88;;;;;;;18.26;100.00;98073.63;1661643;86;20973;-69
2021/05/02 11:14:29;;;;;;;15.18;9.25;;;;;;;18.16;100.00;98081.27;1652354;86;21116;-68
2021/05/02 11:17:09;;;;;;;14.98;8.18;;;;;;;18.06;100.00;98077.38;1647109;86;21033;-69
2021/05/02 11:19:40;;;;;;;18.80;8.95;;;;;;;17.93;100.00;98080.27;1645722;86;21358;-70
2021/05/02 11:22:11;;;;;;;19.30;9.50;;;;;;;17.74;100.00;98076.38;1672548;84;21284;-70
2021/05/02 11:24:50;;;;;;;15.60;9.00;;;;;;;17.57;100.00;98078.55;1670313;85;21169;-70
2021/05/02 11:30:13;;;;;;;15.38;8.30;;;;;;;17.32;100.00;98074.04;1679078;84;21549;-70
2021/05/02 11:32:42;;;;;;;16.23;9.73;;;;;;;17.20;100.00;98069.33;1685783;83;21507;-68
2021/05/02 11:35:17;;;;;;;18.27;8.68;;;;;;;17.14;100.00;98057.17;1679715;84;21192;-68
2021/05/02 11:38:03;;;;;;;19.10;9.20;;;;;;;17.14;100.00;98049.65;1682732;84;21053;-68
2021/05/02 11:40:34;;;;;;;19.32;9.05;;;;;;;17.14;100.00;98041.66;1734042;82;21168;-68
2021/05/02 11:43:11;;;;;;;17.35;8.78;;;;;;;17.18;100.00;98048.09;1724927;82;21002;-69